createdAt,value
2022-12-19T00:02:45.999Z,89.56
2022-12-19T00:05:15.740Z,89.55
2022-12-19T00:07:43.464Z,89.93
2022-12-19T00:10:11.582Z,89.57
2022-12-19T00:12:39.275Z,89.87
2022-12-19T00:15:08.346Z,90.55
2022-12-19T00:17:36.251Z,89.66
2022-12-19T00:20:07.495Z,90.20
2022-12-19T00:22:35.242Z,90.42
2022-12-19T00:25:02.872Z,90.14
2022-12-19T00:27:34.784Z,90.69
2022-12-19T00:30:02.562Z,90.11
2022-12-19T00:32:30.208Z,89.73
2022-12-19T00:34:58.000Z,90.10
2022-12-19T00:37:30.333Z,90.31
2022-12-19T00:39:57.975Z,90.51
2022-12-19T00:42:25.629Z,90.57
2022-12-19T00:44:53.274Z,90.50
2022-12-19T00:47:21.077Z,90.55
2022-12-19T00:49:48.769Z,91.12
2022-12-19T00:52:17.892Z,90.98
2022-12-19T00:54:47.636Z,91.60
2022-12-19T00:57:15.485Z,91.66
2022-12-19T00:59:43.133Z,91.86
2022-12-19T01:02:10.830Z,92.12
2022-12-19T01:04:41.707Z,92.51
2022-12-19T01:07:10.571Z,92.49
2022-12-19T01:09:38.292Z,93.04
2022-12-19T01:12:25.558Z,93.02
2022-12-19T01:14:54.744Z,93.15
2022-12-19T01:17:26.482Z,93.26
2022-12-19T01:19:54.179Z,93.43
2022-12-19T01:22:21.969Z,93.16
2022-12-19T01:24:49.771Z,93.40
2022-12-19T01:27:18.987Z,93.35
2022-12-19T01:29:52.836Z,93.38
2022-12-19T01:32:21.394Z,93.44
2022-12-19T01:34:49.351Z,93.19
2022-12-19T01:37:20.158Z,92.85
2022-12-19T01:39:48.147Z,92.69
2022-12-19T01:42:19.601Z,92.97
2022-12-19T01:45:05.791Z,92.82
2022-12-19T01:47:36.861Z,92.95
2022-12-19T01:50:05.141Z,93.41
2022-12-19T01:52:32.858Z,93.25
2022-12-19T01:55:00.588Z,93.59
2022-12-19T01:57:30.656Z,93.84
2022-12-19T02:00:01.313Z,93.72
2022-12-19T02:02:33.048Z,93.87
2022-12-19T02:05:01.821Z,94.00
2022-12-19T02:07:29.971Z,93.51
2022-12-19T02:09:58.495Z,93.79
2022-12-19T02:12:34.715Z,94.47
2022-12-19T02:15:03.706Z,94.17
2022-12-19T02:17:41.728Z,94.64
2022-12-19T02:20:53.459Z,94.13
2022-12-19T02:23:46.222Z,94.43
2022-12-19T02:26:41.746Z,94.65
2022-12-19T02:29:31.428Z,94.44
2022-12-19T02:32:07.605Z,94.49
2022-12-19T02:34:44.584Z,94.41
2022-12-19T02:37:18.760Z,94.86
2022-12-19T02:39:53.511Z,94.87
2022-12-19T02:42:27.228Z,94.72
2022-12-19T02:44:59.171Z,94.62
2022-12-19T02:47:29.561Z,94.76
2022-12-19T02:49:57.709Z,94.35
2022-12-19T02:52:46.831Z,93.75
2022-12-19T02:55:19.037Z,93.68
2022-12-19T02:58:15.138Z,93.12
2022-12-19T03:00:52.583Z,93.30
2022-12-19T03:03:28.440Z,92.95
2022-12-19T03:06:08.225Z,92.66
2022-12-19T03:08:42.252Z,92.50
2022-12-19T03:11:13.323Z,92.04
2022-12-19T03:13:45.650Z,91.79
2022-12-19T03:16:14.060Z,91.61
2022-12-19T03:18:43.438Z,91.67
2022-12-19T03:21:17.415Z,91.99
2022-12-19T03:23:46.530Z,91.67
2022-12-19T03:26:19.566Z,90.67
2022-12-19T03:28:51.701Z,90.17
2022-12-19T03:31:22.866Z,90.12
2022-12-19T03:33:55.980Z,90.11
2022-12-19T03:36:28.319Z,90.23
2022-12-19T03:38:57.253Z,89.76
2022-12-19T03:41:41.356Z,90.12
2022-12-19T03:44:12.451Z,90.42
2022-12-19T03:46:46.062Z,90.27
2022-12-19T03:49:15.423Z,90.74
2022-12-19T03:51:56.380Z,90.77
2022-12-19T03:54:30.841Z,90.67
2022-12-19T03:57:03.177Z,90.67
2022-12-19T03:59:35.419Z,90.22
2022-12-19T04:02:05.152Z,90.51
2022-12-19T04:04:38.805Z,90.70
2022-12-19T04:07:08.427Z,90.52
2022-12-19T04:09:38.319Z,90.86
2022-12-19T04:12:10.688Z,90.79
2022-12-19T04:14:39.894Z,91.46
2022-12-19T04:17:14.288Z,91.67
2022-12-19T04:19:49.121Z,91.94
2022-12-19T04:22:22.259Z,92.04
2022-12-19T04:24:51.731Z,92.68
2022-12-19T04:27:21.566Z,92.80
2022-12-19T04:29:52.889Z,93.36
2022-12-19T04:32:21.509Z,93.25
2022-12-19T04:34:50.523Z,92.84
2022-12-19T04:37:18.272Z,93.20
2022-12-19T04:39:45.929Z,93.04
2022-12-19T04:42:13.578Z,93.06
2022-12-19T04:44:41.261Z,93.60
2022-12-19T04:47:08.953Z,93.79
2022-12-19T04:49:36.613Z,93.86
2022-12-19T04:52:05.923Z,94.30
2022-12-19T04:54:35.809Z,94.42
2022-12-19T04:57:03.592Z,95.29
2022-12-19T04:59:31.709Z,96.32
2022-12-19T05:01:59.444Z,96.88
2022-12-19T05:04:28.095Z,97.54
2022-12-19T05:06:55.717Z,97.61
2022-12-19T05:09:24.921Z,97.94
2022-12-19T05:11:52.562Z,98.02
2022-12-19T05:14:20.276Z,97.95
2022-12-19T05:16:48.007Z,98.07
2022-12-19T05:19:15.818Z,98.14
2022-12-19T05:21:43.471Z,98.25
2022-12-19T05:24:11.089Z,98.35
2022-12-19T05:26:40.115Z,97.99
2022-12-19T05:29:08.477Z,98.16
2022-12-19T05:31:36.601Z,98.18
2022-12-19T05:34:04.346Z,97.93
2022-12-19T05:36:32.715Z,97.85
2022-12-19T05:39:00.530Z,97.94
2022-12-19T05:41:28.302Z,98.16
2022-12-19T05:43:57.627Z,97.73
2022-12-19T05:46:27.277Z,97.97
2022-12-19T05:48:55.232Z,97.82
2022-12-19T05:51:23.645Z,97.76
2022-12-19T05:53:51.377Z,98.28
2022-12-19T05:56:21.330Z,98.37
2022-12-19T05:58:50.167Z,98.92
2022-12-19T06:01:21.167Z,99.20
2022-12-19T06:03:49.573Z,99.16
2022-12-19T06:06:19.015Z,99.04
2022-12-19T06:08:47.259Z,99.17
2022-12-19T06:11:15.982Z,99.59
2022-12-19T06:13:43.718Z,99.66
2022-12-19T06:16:13.978Z,99.73
2022-12-19T06:18:45.591Z,99.90
2022-12-19T06:21:15.012Z,100.00
2022-12-19T06:23:43.870Z,100.00
2022-12-19T06:26:18.315Z,99.83
2022-12-19T06:28:47.556Z,99.97
2022-12-19T06:31:15.896Z,100.00
2022-12-19T06:33:45.609Z,100.00
2022-12-19T06:36:17.052Z,100.00
2022-12-19T06:38:44.775Z,100.00
2022-12-19T06:41:30.497Z,100.00
2022-12-19T06:43:59.319Z,100.00
2022-12-19T06:46:27.055Z,100.00
2022-12-19T06:48:56.364Z,100.00
2022-12-19T06:51:24.434Z,100.00
2022-12-19T06:53:52.201Z,100.00
2022-12-19T06:56:20.224Z,100.00
2022-12-19T06:58:48.736Z,100.00
2022-12-19T07:01:20.191Z,100.00
2022-12-19T07:03:49.691Z,100.00
2022-12-19T07:06:18.873Z,100.00
2022-12-19T07:08:46.656Z,100.00
2022-12-19T07:11:14.458Z,99.87
2022-12-19T07:13:42.182Z,99.25
2022-12-19T07:16:10.058Z,99.31
2022-12-19T07:18:41.483Z,99.08
2022-12-19T07:21:12.271Z,98.97
2022-12-19T07:23:41.985Z,98.43
2022-12-19T07:26:09.767Z,98.66
2022-12-19T07:28:38.830Z,98.39
2022-12-19T07:31:06.808Z,98.28
2022-12-19T07:33:34.743Z,98.15
2022-12-19T07:36:02.615Z,98.18
2022-12-19T07:38:30.284Z,98.11
2022-12-19T07:41:01.959Z,98.31
2022-12-19T07:43:29.673Z,98.35
2022-12-19T07:45:57.580Z,98.73
2022-12-19T07:48:25.418Z,98.73
2022-12-19T07:50:53.154Z,98.52
2022-12-19T07:53:21.045Z,98.72
2022-12-19T07:55:51.662Z,98.44
2022-12-19T07:58:20.965Z,98.36
2022-12-19T08:00:56.093Z,98.06
2022-12-19T08:03:24.021Z,98.21
2022-12-19T08:05:52.337Z,98.05
2022-12-19T08:08:20.591Z,97.82
2022-12-19T08:10:48.353Z,97.49
2022-12-19T08:13:16.055Z,97.85
2022-12-19T08:15:45.078Z,97.83
2022-12-19T08:18:13.041Z,97.89
2022-12-19T08:20:40.776Z,97.30
2022-12-19T08:23:08.598Z,97.63
2022-12-19T08:25:36.308Z,97.29
2022-12-19T08:28:03.998Z,97.63
2022-12-19T08:30:31.692Z,97.62
2022-12-19T08:33:00.773Z,97.30
2022-12-19T08:35:28.542Z,96.96
2022-12-19T08:37:56.171Z,96.66
2022-12-19T08:40:24.344Z,96.40
2022-12-19T08:42:52.246Z,96.16
2022-12-19T08:45:19.958Z,95.94
2022-12-19T08:47:47.817Z,96.35
2022-12-19T08:50:17.108Z,96.27
2022-12-19T08:52:45.145Z,95.96
2022-12-19T08:55:12.916Z,95.73
2022-12-19T08:57:40.630Z,95.41
2022-12-19T09:00:09.824Z,95.24
2022-12-19T09:02:38.045Z,94.80
2022-12-19T09:05:59.965Z,94.53
2022-12-19T09:07:56.240Z,94.83
2022-12-19T09:10:24.057Z,94.64
2022-12-19T09:12:56.222Z,94.91
2022-12-19T09:15:25.857Z,94.78
2022-12-19T09:17:53.597Z,94.50
2022-12-19T09:20:23.724Z,94.14
2022-12-19T09:22:51.600Z,94.33
2022-12-19T09:25:20.687Z,94.46
2022-12-19T09:28:26.015Z,94.35
2022-12-19T09:30:36.480Z,93.94
2022-12-19T09:33:04.192Z,94.19
2022-12-19T09:35:31.949Z,93.86
2022-12-19T09:38:00.500Z,93.56
2022-12-19T09:40:36.548Z,93.26
2022-12-19T09:43:12.331Z,92.78
2022-12-19T09:45:52.159Z,92.54
2022-12-19T09:48:24.736Z,91.92
2022-12-19T09:51:10.097Z,91.72
2022-12-19T09:53:43.800Z,91.60
2022-12-19T09:56:16.909Z,92.25
2022-12-19T09:58:48.559Z,92.04
2022-12-19T10:01:21.527Z,92.75
2022-12-19T10:03:59.646Z,92.69
2022-12-19T10:07:14.037Z,92.62
2022-12-19T10:11:12.994Z,92.25
2022-12-19T10:12:48.259Z,91.51
2022-12-19T10:15:13.002Z,92.24
2022-12-19T10:17:58.395Z,92.18
2022-12-19T10:20:30.713Z,92.51
2022-12-19T10:23:09.503Z,92.32
2022-12-19T10:25:55.160Z,91.70
2022-12-19T10:28:39.956Z,92.05
2022-12-19T10:31:22.287Z,91.59
2022-12-19T10:33:58.202Z,91.12
2022-12-19T10:36:48.609Z,90.86
2022-12-19T10:39:23.329Z,90.60
2022-12-19T10:41:56.940Z,91.25
2022-12-19T10:44:31.650Z,90.58
2022-12-19T10:46:59.471Z,90.69
2022-12-19T10:49:29.397Z,90.24
2022-12-19T10:52:02.139Z,89.89
2022-12-19T10:54:43.691Z,89.39
2022-12-19T10:57:25.318Z,89.63
2022-12-19T10:59:59.724Z,89.37
2022-12-19T11:02:44.487Z,89.02
2022-12-19T11:05:26.605Z,88.33
2022-12-19T11:08:01.776Z,88.03
2022-12-19T11:12:22.332Z,87.44
2022-12-19T11:18:34.402Z,87.73
2022-12-19T11:23:21.486Z,86.67
2022-12-19T11:29:37.685Z,87.19
2022-12-19T11:29:41.907Z,87.97
2022-12-19T11:29:44.967Z,87.50
2022-12-19T11:30:35.458Z,87.59
2022-12-19T11:33:31.437Z,86.36
2022-12-19T11:36:02.457Z,84.85
2022-12-19T11:38:41.173Z,84.56
2022-12-19T11:41:15.607Z,85.55
2022-12-19T11:43:53.339Z,85.16
2022-12-19T11:46:30.528Z,85.72
2022-12-19T11:49:05.224Z,84.87
2022-12-19T11:51:40.591Z,84.79
2022-12-19T11:54:17.673Z,84.98
2022-12-19T11:56:45.332Z,84.45
2022-12-19T11:59:18.486Z,84.88
2022-12-19T12:02:10.461Z,83.77
2022-12-19T12:05:08.193Z,82.59
2022-12-19T12:07:49.778Z,82.78
2022-12-19T12:14:12.390Z,82.60
2022-12-19T12:21:18.688Z,83.05
2022-12-19T12:29:37.816Z,83.27
2022-12-19T12:31:22.343Z,81.88
2022-12-19T12:31:31.738Z,81.86
2022-12-19T12:31:39.010Z,80.92
2022-12-19T12:31:41.879Z,80.89
2022-12-19T12:35:34.978Z,80.43
2022-12-19T12:40:48.737Z,79.06
2022-12-19T12:43:31.512Z,80.82
2022-12-19T12:45:59.181Z,82.02
2022-12-19T12:48:31.090Z,82.51
2022-12-19T12:51:01.245Z,82.57
2022-12-19T12:53:35.483Z,81.81
2022-12-19T12:56:07.125Z,82.12
2022-12-19T12:59:06.432Z,82.51
2022-12-19T13:01:37.333Z,81.67
2022-12-19T13:04:19.707Z,80.92
2022-12-19T13:07:05.885Z,79.53
2022-12-19T13:09:37.743Z,79.65
2022-12-19T13:12:44.862Z,78.18
2022-12-19T13:15:37.454Z,79.72
2022-12-19T13:18:33.982Z,79.24
2022-12-19T13:21:03.652Z,77.99
2022-12-19T13:23:49.000Z,78.55
2022-12-19T13:26:41.702Z,77.98
2022-12-19T13:29:51.302Z,77.73
2022-12-19T13:32:19.102Z,77.72
2022-12-19T13:35:20.585Z,77.40
2022-12-19T13:40:00.881Z,77.67
2022-12-19T13:40:54.765Z,75.63
2022-12-19T13:43:45.736Z,78.10
2022-12-19T13:46:37.471Z,77.79
2022-12-19T13:49:07.566Z,76.66
2022-12-19T13:51:54.656Z,77.80
2022-12-19T13:54:28.385Z,76.26
2022-12-19T13:57:01.060Z,77.66
2022-12-19T13:59:40.778Z,75.97
2022-12-19T14:02:31.527Z,76.42
2022-12-19T14:05:00.457Z,74.87
2022-12-19T14:07:36.904Z,75.95
2022-12-19T14:11:30.039Z,76.79
2022-12-19T14:13:52.869Z,75.77
2022-12-19T14:16:01.836Z,76.24
2022-12-19T14:18:42.841Z,75.35
2022-12-19T14:22:11.162Z,75.17
2022-12-19T14:24:16.039Z,76.50
2022-12-19T14:28:19.134Z,76.29
2022-12-19T14:30:28.524Z,75.85
2022-12-19T14:33:44.636Z,76.32
2022-12-19T14:36:06.580Z,76.26
2022-12-19T14:39:20.291Z,76.04
2022-12-19T14:41:08.000Z,75.79
2022-12-19T14:43:59.367Z,75.24
2022-12-19T14:53:36.596Z,75.92
2022-12-19T14:54:07.010Z,76.05
2022-12-19T14:54:31.036Z,75.49
2022-12-19T14:56:03.862Z,76.15
2022-12-19T14:58:52.848Z,77.05
2022-12-19T15:01:25.482Z,76.86
2022-12-19T15:04:48.303Z,77.00
2022-12-19T15:07:09.010Z,76.31
2022-12-19T15:11:06.969Z,76.61
2022-12-19T15:14:47.271Z,76.41
2022-12-19T15:15:45.494Z,75.84
2022-12-19T15:18:25.745Z,75.98
2022-12-19T15:20:56.788Z,76.56
2022-12-19T15:23:27.924Z,77.13
2022-12-19T15:26:06.095Z,77.12
2022-12-19T15:28:40.166Z,77.53
2022-12-19T15:31:18.703Z,77.54
2022-12-19T15:34:23.357Z,76.58
2022-12-19T15:36:35.597Z,77.24
2022-12-19T15:39:04.774Z,77.07
2022-12-19T15:41:32.682Z,77.00
2022-12-19T15:44:04.511Z,76.82
2022-12-19T15:46:33.611Z,76.73
2022-12-19T15:49:02.082Z,77.14
2022-12-19T15:51:29.739Z,76.98
2022-12-19T15:54:22.146Z,77.33
2022-12-19T15:56:50.000Z,77.78
2022-12-19T15:59:34.750Z,77.14
2022-12-19T16:02:17.648Z,77.49
2022-12-19T16:04:47.364Z,77.34
2022-12-19T16:07:17.555Z,77.29
2022-12-19T16:09:45.450Z,76.78
2022-12-19T16:12:16.991Z,77.12
2022-12-19T16:14:45.436Z,77.09
2022-12-19T16:17:19.118Z,76.63
2022-12-19T16:19:46.842Z,76.96
2022-12-19T16:22:19.441Z,77.20
2022-12-19T16:24:47.259Z,76.89
2022-12-19T16:27:22.762Z,77.26
2022-12-19T16:29:51.238Z,77.61
2022-12-19T16:32:19.366Z,76.69
2022-12-19T16:34:48.878Z,76.61
2022-12-19T16:37:16.600Z,77.46
2022-12-19T16:39:44.297Z,78.46
2022-12-19T16:42:15.766Z,78.63
2022-12-19T16:44:46.777Z,77.41
2022-12-19T16:47:15.910Z,77.34
2022-12-19T16:49:44.033Z,76.87
2022-12-19T16:52:12.055Z,76.27
2022-12-19T16:54:40.170Z,76.49
2022-12-19T16:57:16.823Z,76.34
2022-12-19T16:59:46.371Z,76.82
2022-12-19T17:02:37.443Z,75.39
2022-12-19T17:05:05.788Z,75.98
2022-12-19T17:07:33.451Z,75.77
2022-12-19T17:10:01.136Z,75.80
2022-12-19T17:12:29.439Z,76.05
2022-12-19T17:14:59.830Z,75.37
2022-12-19T17:17:27.755Z,76.36
2022-12-19T17:19:55.406Z,75.71
2022-12-19T17:22:23.066Z,75.78
2022-12-19T17:24:50.926Z,75.26
2022-12-19T17:27:19.282Z,75.83
2022-12-19T17:29:47.385Z,75.02
2022-12-19T17:32:23.588Z,74.86
2022-12-19T17:34:53.282Z,74.99
2022-12-19T17:37:21.290Z,74.51
2022-12-19T17:39:49.418Z,74.10
2022-12-19T17:42:21.596Z,73.80
2022-12-19T17:44:49.291Z,73.52
2022-12-19T17:47:21.170Z,73.84
2022-12-19T17:49:49.696Z,74.20
2022-12-19T17:52:19.126Z,74.49
2022-12-19T17:54:47.034Z,74.28
2022-12-19T17:57:15.541Z,74.02
2022-12-19T17:59:43.767Z,74.49
2022-12-19T18:02:21.762Z,74.48
2022-12-19T18:04:50.435Z,74.65
2022-12-19T18:07:19.177Z,74.90
2022-12-19T18:09:46.919Z,75.59
2022-12-19T18:12:15.291Z,74.30
2022-12-19T18:14:43.054Z,74.58
2022-12-19T18:17:12.589Z,74.59
2022-12-19T18:19:41.825Z,74.80
2022-12-19T18:22:13.598Z,74.37
2022-12-19T18:24:41.551Z,74.35
2022-12-19T18:27:09.371Z,73.76
2022-12-19T18:29:37.235Z,74.47
2022-12-19T18:32:05.053Z,74.42
2022-12-19T18:34:34.464Z,74.09
2022-12-19T18:37:05.431Z,73.97
2022-12-19T18:39:34.391Z,74.15
2022-12-19T18:42:02.269Z,74.37
2022-12-19T18:44:30.041Z,74.55
2022-12-19T18:46:57.808Z,75.43
2022-12-19T18:49:25.528Z,74.80
2022-12-19T18:51:53.201Z,73.87
2022-12-19T18:54:23.301Z,75.09
2022-12-19T18:56:51.809Z,75.27
2022-12-19T18:59:20.022Z,75.05
2022-12-19T19:01:48.421Z,75.66
2022-12-19T19:04:18.146Z,76.22
2022-12-19T19:06:51.552Z,75.88
2022-12-19T19:09:22.588Z,75.61
2022-12-19T19:11:50.239Z,75.66
2022-12-19T19:14:17.999Z,75.16
2022-12-19T19:16:45.736Z,75.58
2022-12-19T19:19:17.571Z,76.08
2022-12-19T19:21:45.372Z,75.42
2022-12-19T19:24:15.962Z,75.16
2022-12-19T19:26:46.729Z,75.84
2022-12-19T19:29:15.016Z,75.37
2022-12-19T19:31:46.759Z,75.54
2022-12-19T19:34:19.626Z,75.52
2022-12-19T19:36:50.272Z,75.32
2022-12-19T19:39:19.787Z,75.01
2022-12-19T19:41:48.977Z,75.16
2022-12-19T19:44:16.652Z,74.93
2022-12-19T19:46:44.737Z,76.22
2022-12-19T19:49:12.613Z,75.74
2022-12-19T19:51:40.331Z,75.81
2022-12-19T19:54:08.201Z,75.76
2022-12-19T19:56:36.404Z,74.69
2022-12-19T19:59:06.049Z,74.03
2022-12-19T20:01:34.050Z,75.26
2022-12-19T20:04:01.878Z,75.07
2022-12-19T20:06:29.793Z,75.13
2022-12-19T20:08:57.459Z,74.48
2022-12-19T20:11:25.167Z,75.54
2022-12-19T20:13:52.879Z,74.67
2022-12-19T20:16:22.084Z,74.75
2022-12-19T20:18:51.834Z,75.21
2022-12-19T20:21:21.160Z,74.84
2022-12-19T20:23:49.413Z,74.81
2022-12-19T20:26:18.384Z,76.08
2022-12-19T20:28:49.491Z,75.88
2022-12-19T20:31:18.807Z,75.70
2022-12-19T20:33:48.331Z,76.68
2022-12-19T20:36:17.157Z,77.05
2022-12-19T20:38:45.253Z,76.30
2022-12-19T20:41:12.930Z,77.24
2022-12-19T20:43:41.434Z,76.87
2022-12-19T20:46:11.585Z,76.75
2022-12-19T20:48:39.325Z,76.83
2022-12-19T20:51:09.002Z,77.22
2022-12-19T20:53:37.938Z,77.27
2022-12-19T20:56:07.789Z,76.83
2022-12-19T20:58:37.631Z,77.76
2022-12-19T21:01:07.283Z,77.16
2022-12-19T21:03:35.663Z,77.00
2022-12-19T21:06:03.890Z,77.22
2022-12-19T21:08:33.586Z,76.37
2022-12-19T21:11:01.851Z,76.58
2022-12-19T21:13:29.671Z,76.52
2022-12-19T21:15:58.705Z,76.53
2022-12-19T21:18:27.162Z,77.14
2022-12-19T21:20:55.709Z,77.65
2022-12-19T21:23:25.261Z,77.35
2022-12-19T21:25:58.719Z,78.05
2022-12-19T21:28:26.698Z,77.84
2022-12-19T21:30:58.845Z,77.59
2022-12-19T21:33:27.413Z,78.06
2022-12-19T21:35:55.109Z,79.09
2022-12-19T21:38:23.272Z,78.44
2022-12-19T21:40:50.968Z,78.97
2022-12-19T21:43:20.040Z,79.19
2022-12-19T21:45:47.792Z,78.97
2022-12-19T21:48:15.447Z,78.66
2022-12-19T21:50:43.148Z,79.04
2022-12-19T21:53:10.802Z,78.25
2022-12-19T21:55:38.429Z,78.24
2022-12-19T21:58:06.057Z,79.16
2022-12-19T22:00:35.194Z,78.83
2022-12-19T22:03:13.767Z,78.63
2022-12-19T22:05:42.480Z,79.19
2022-12-19T22:08:10.900Z,79.49
2022-12-19T22:10:39.491Z,79.02
2022-12-19T22:13:07.218Z,80.11
2022-12-19T22:15:37.597Z,79.80
2022-12-19T22:18:05.581Z,79.57
2022-12-19T22:20:33.592Z,80.58
2022-12-19T22:23:01.232Z,80.77
2022-12-19T22:25:28.871Z,80.40
2022-12-19T22:27:57.167Z,80.29
2022-12-19T22:30:24.801Z,80.85
2022-12-19T22:32:53.853Z,80.08
2022-12-19T22:35:21.488Z,79.70
2022-12-19T22:37:49.374Z,79.92
2022-12-19T22:40:17.102Z,79.92
2022-12-19T22:42:44.859Z,79.85
2022-12-19T22:45:12.937Z,79.12
2022-12-19T22:47:42.273Z,79.65
2022-12-19T22:50:11.674Z,79.92
2022-12-19T22:52:39.663Z,79.19
2022-12-19T22:55:08.514Z,80.06
2022-12-19T22:57:36.389Z,79.47
2022-12-19T23:00:07.387Z,79.50
2022-12-19T23:02:35.279Z,78.78
2022-12-19T23:05:03.329Z,78.73
2022-12-19T23:07:32.567Z,79.14
2022-12-19T23:10:00.364Z,79.60
2022-12-19T23:12:28.045Z,79.34
2022-12-19T23:14:55.728Z,79.84
2022-12-19T23:17:23.427Z,80.30
2022-12-19T23:19:51.167Z,79.09
2022-12-19T23:22:18.882Z,79.60
2022-12-19T23:24:48.152Z,78.09
2022-12-19T23:27:16.307Z,78.49
2022-12-19T23:29:44.089Z,78.02
2022-12-19T23:32:12.159Z,78.58
2022-12-19T23:34:39.888Z,78.07
2022-12-19T23:37:11.984Z,78.27
2022-12-19T23:39:40.282Z,78.12
2022-12-19T23:42:09.390Z,77.64
2022-12-19T23:44:37.158Z,77.85
2022-12-19T23:47:04.908Z,77.89
2022-12-19T23:49:33.366Z,77.29
2022-12-19T23:52:01.084Z,77.29
2022-12-19T23:54:28.872Z,77.51
2022-12-19T23:56:56.565Z,77.75
2022-12-19T23:59:25.651Z,77.22
